Time;durP1;ratioP1;P1;durP2;ratioP2;P2;SDS_P1;SDS_P2;PMS_P1;PMS_P2;Temp;Humidity;BMP_temperature;BMP_pressure;BME280_temperature;BME280_humidity;BME280_pressure;Samples;Min_cycle;Max_cycle;Signal;HPM_P1;HPM_P2
2022/09/24 00:01:12;;;;;;;7.18;4.07;;;19.30;71.20;;;;;;5033354;28;20190;-69
2022/09/24 00:03:40;;;;;;;7.15;4.38;;;19.30;71.40;;;;;;5031916;28;20203;-68
2022/09/24 00:06:07;;;;;;;6.68;4.40;;;19.30;71.60;;;;;;5048343;28;20180;-69
2022/09/24 00:08:34;;;;;;;5.85;4.20;;;19.30;71.70;;;;;;5048440;28;20266;-69
2022/09/24 00:11:05;;;;;;;5.93;4.28;;;19.30;71.80;;;;;;5015128;28;20678;-69
2022/09/24 00:13:33;;;;;;;7.10;4.22;;;19.30;71.90;;;;;;5031841;28;20214;-69
2022/09/24 00:16:10;;;;;;;6.05;4.50;;;19.30;71.80;;;;;;5032944;28;20258;-69
2022/09/24 00:18:36;;;;;;;5.10;4.60;;;19.30;72.00;;;;;;5031576;28;20183;-69
2022/09/24 00:21:12;;;;;;;6.50;4.30;;;19.30;71.80;;;;;;5033084;28;20731;-69
2022/09/24 00:23:39;;;;;;;6.95;3.83;;;19.30;72.00;;;;;;5015014;28;20206;-70
2022/09/24 00:28:51;;;;;;;6.20;4.10;;;19.30;72.50;;;;;;5031349;28;20191;-70
2022/09/24 00:31:17;;;;;;;4.90;3.70;;;19.30;72.70;;;;;;5031295;28;20213;-70
2022/09/24 00:33:42;;;;;;;6.82;3.80;;;19.30;72.80;;;;;;5031378;28;20263;-69
2022/09/24 00:36:09;;;;;;;5.85;3.65;;;19.30;73.20;;;;;;5015114;28;20183;-69
2022/09/24 00:38:34;;;;;;;7.10;3.95;;;19.20;73.50;;;;;;5031647;28;20603;-69
2022/09/24 00:41:01;;;;;;;5.22;3.80;;;19.20;73.90;;;;;;5032481;28;20712;-69
2022/09/24 00:43:37;;;;;;;5.15;3.83;;;19.20;74.00;;;;;;5031254;28;20211;-69
2022/09/24 00:46:09;;;;;;;5.55;3.70;;;19.20;74.40;;;;;;5031482;28;20207;-70
2022/09/24 00:48:39;;;;;;;8.43;4.30;;;19.20;74.50;;;;;;5014362;28;20266;-69
2022/09/24 00:51:06;;;;;;;6.40;3.70;;;19.20;74.50;;;;;;5014579;28;20749;-70
2022/09/24 00:53:33;;;;;;;6.82;4.05;;;19.20;75.40;;;;;;5014579;28;20640;-70
2022/09/24 00:56:03;;;;;;;6.75;3.90;;;19.10;75.00;;;;;;5030924;28;20183;-70
2022/09/24 00:58:30;;;;;;;6.53;3.75;;;19.20;76.00;;;;;;5030884;28;20235;-70
2022/09/24 01:01:15;;;;;;;16.23;4.78;;;19.10;76.30;;;;;;5014542;28;20187;-69
2022/09/24 01:03:41;;;;;;;4.18;3.50;;;19.10;76.80;;;;;;5031153;28;20206;-70
2022/09/24 01:06:08;;;;;;;5.40;4.00;;;19.20;77.20;;;;;;5030850;28;20191;-69
2022/09/24 01:08:35;;;;;;;5.32;3.85;;;19.20;76.70;;;;;;5032289;28;20180;-70
2022/09/24 01:11:28;;;;;;;5.07;3.88;;;19.20;76.70;;;;;;5014908;28;20564;-70
2022/09/24 01:14:04;;;;;;;8.90;4.35;;;19.10;76.70;;;;;;5014488;28;20207;-70
2022/09/24 01:16:41;;;;;;;4.68;3.67;;;19.10;76.80;;;;;;5014465;28;20171;-69
2022/09/24 01:19:48;;;;;;;5.85;3.95;;;19.10;76.90;;;;;;5014826;28;20174;-70
2022/09/24 01:22:42;;;;;;;7.45;4.28;;;19.10;77.00;;;;;;5014678;28;20203;-69
2022/09/24 01:25:48;;;;;;;7.03;4.22;;;19.10;77.40;;;;;;5014651;28;20273;-70
2022/09/24 01:28:32;;;;;;;5.45;3.30;;;19.10;77.70;;;;;;5030844;28;20274;-70
2022/09/24 01:31:07;;;;;;;5.47;3.90;;;19.10;77.30;;;;;;5030737;28;20195;-69
2022/09/24 01:33:36;;;;;;;6.22;4.03;;;19.10;77.80;;;;;;5014536;28;20218;-69
2022/09/24 01:36:07;;;;;;;9.23;3.60;;;19.10;78.40;;;;;;5030684;28;20194;-69
2022/09/24 01:38:40;;;;;;;5.95;3.72;;;19.10;78.20;;;;;;5014325;28;20203;-70
2022/09/24 01:41:11;;;;;;;6.18;4.18;;;19.10;78.40;;;;;;5030650;28;20190;-70
2022/09/24 01:43:38;;;;;;;4.70;3.63;;;19.10;78.40;;;;;;5050949;22;20231;-70
2022/09/24 01:46:05;;;;;;;10.50;3.90;;;19.10;78.70;;;;;;5010443;28;20180;-72
2022/09/24 01:48:40;;;;;;;5.28;3.72;;;19.10;79.00;;;;;;4994778;28;20188;-71
2022/09/24 01:51:20;;;;;;;5.07;3.60;;;19.20;79.00;;;;;;4994559;28;20175;-71
2022/09/24 01:53:54;;;;;;;9.02;4.20;;;19.10;79.00;;;;;;5012009;28;20200;-70
2022/09/24 01:56:27;;;;;;;4.68;3.72;;;19.20;79.10;;;;;;4994540;28;20557;-71
2022/09/24 01:59:22;;;;;;;8.23;4.03;;;19.20;77.90;;;;;;5011145;28;20176;-71
2022/09/24 02:02:06;;;;;;;5.50;3.83;;;19.10;77.70;;;;;;5001711;28;20265;-71
2022/09/24 02:04:42;;;;;;;7.75;3.88;;;19.10;77.70;;;;;;5010540;28;20208;-71
2022/09/24 02:07:28;;;;;;;5.30;3.75;;;19.10;77.80;;;;;;5010840;28;20184;-71
2022/09/24 02:09:54;;;;;;;6.20;2.97;;;19.10;77.80;;;;;;5014127;28;20176;-71
2022/09/24 02:12:33;;;;;;;5.72;3.55;;;19.10;77.80;;;;;;4997731;28;20219;-71
2022/09/24 02:15:06;;;;;;;10.98;3.78;;;19.10;77.80;;;;;;5014084;28;20176;-70
2022/09/24 02:17:37;;;;;;;7.53;3.60;;;19.20;78.70;;;;;;4998135;28;20180;-70
2022/09/24 02:20:11;;;;;;;5.65;3.13;;;19.20;78.80;;;;;;5014163;28;20195;-70
2022/09/24 02:22:40;;;;;;;4.60;3.55;;;19.10;80.10;;;;;;4997646;28;20211;-70
2022/09/24 02:25:11;;;;;;;5.65;3.83;;;19.20;80.30;;;;;;4997847;28;20521;-70
2022/09/24 02:27:37;;;;;;;17.92;4.07;;;19.20;81.90;;;;;;5014354;28;20181;-70
2022/09/24 02:30:06;;;;;;;8.48;3.55;;;19.20;81.90;;;;;;5015118;28;20245;-70
2022/09/24 02:32:35;;;;;;;4.97;3.38;;;19.20;82.30;;;;;;4997728;28;20216;-70
2022/09/24 02:35:07;;;;;;;5.03;3.88;;;19.20;82.60;;;;;;4997262;28;20180;-70
2022/09/24 02:37:40;;;;;;;4.43;3.67;;;19.20;81.70;;;;;;5013819;28;20184;-70
2022/09/24 02:40:11;;;;;;;5.68;3.88;;;19.10;82.00;;;;;;4996022;28;20219;-71
2022/09/24 02:42:39;;;;;;;6.55;3.88;;;19.20;83.30;;;;;;5013389;28;20295;-70
2022/09/24 02:45:06;;;;;;;6.57;3.75;;;19.20;81.50;;;;;;5029976;28;20184;-70
2022/09/24 02:47:32;;;;;;;5.60;3.70;;;19.20;82.10;;;;;;5013444;28;20324;-71
2022/09/24 02:49:58;;;;;;;5.22;3.60;;;19.20;82.60;;;;;;5013815;28;20180;-71
2022/09/24 02:52:23;;;;;;;6.45;3.90;;;19.20;82.10;;;;;;5013410;28;20242;-71
2022/09/24 02:54:49;;;;;;;5.10;3.92;;;19.20;82.20;;;;;;5013495;28;20180;-71
2022/09/24 02:57:17;;;;;;;4.18;3.20;;;19.20;82.40;;;;;;5013412;28;20258;-71
2022/09/24 02:59:44;;;;;;;4.82;3.65;;;19.20;82.90;;;;;;5013333;28;20184;-72
2022/09/24 03:02:10;;;;;;;5.18;3.83;;;19.10;82.90;;;;;;5029949;28;20243;-72
2022/09/24 03:04:36;;;;;;;7.57;4.65;;;19.20;82.80;;;;;;5013439;28;20195;-71
2022/09/24 03:07:02;;;;;;;10.88;4.20;;;19.20;82.40;;;;;;5014572;28;20183;-71
2022/09/24 03:09:29;;;;;;;9.02;3.80;;;19.20;82.00;;;;;;5029691;28;20667;-71
2022/09/24 03:11:59;;;;;;;4.60;4.10;;;19.30;81.40;;;;;;5013468;28;20219;-71
2022/09/24 03:14:26;;;;;;;5.72;4.25;;;19.40;81.30;;;;;;5029269;28;20211;-71
2022/09/24 03:16:52;;;;;;;7.28;3.58;;;19.40;81.40;;;;;;5014360;28;20164;-70
2022/09/24 03:19:18;;;;;;;3.97;3.28;;;19.40;81.40;;;;;;5012976;28;20544;-70
2022/09/24 03:21:43;;;;;;;6.25;3.88;;;19.40;81.40;;;;;;5029238;28;20192;-71
2022/09/24 03:24:09;;;;;;;7.95;3.92;;;19.40;81.70;;;;;;5029708;28;20208;-71
2022/09/24 03:26:36;;;;;;;4.20;3.47;;;19.40;81.80;;;;;;5012951;28;20184;-71
2022/09/24 03:29:01;;;;;;;4.80;3.67;;;19.40;82.00;;;;;;5013153;28;20207;-71
2022/09/24 03:31:27;;;;;;;3.70;3.10;;;19.40;82.10;;;;;;5012969;28;20574;-71
2022/09/24 03:33:53;;;;;;;3.58;3.28;;;19.40;82.10;;;;;;5029097;28;20223;-71
2022/09/24 03:36:24;;;;;;;5.55;3.30;;;19.30;82.20;;;;;;5012475;28;20280;-71
2022/09/24 03:38:55;;;;;;;5.72;3.65;;;19.40;82.30;;;;;;5012872;28;20262;-71
2022/09/24 03:41:23;;;;;;;4.85;3.38;;;19.40;82.30;;;;;;5012853;28;20184;-71
2022/09/24 03:43:49;;;;;;;5.13;3.90;;;19.30;82.30;;;;;;5012653;28;20269;-70
2022/09/24 03:46:16;;;;;;;4.07;3.70;;;19.40;82.40;;;;;;5012464;28;20199;-70
2022/09/24 03:48:42;;;;;;;7.93;3.60;;;19.40;82.30;;;;;;5012485;28;20184;-70
2022/09/24 03:51:11;;;;;;;5.55;3.60;;;19.40;82.40;;;;;;5012474;28;20198;-71
2022/09/24 03:53:37;;;;;;;5.65;3.50;;;19.40;82.80;;;;;;5012544;28;20203;-71
2022/09/24 03:56:05;;;;;;;5.53;3.35;;;19.30;82.70;;;;;;5028748;28;20196;-71
2022/09/24 03:58:34;;;;;;;6.50;3.42;;;19.30;83.20;;;;;;5012308;28;20198;-71
2022/09/24 04:01:01;;;;;;;3.53;3.22;;;19.30;83.50;;;;;;5012363;28;20180;-71
2022/09/24 04:03:26;;;;;;;7.22;3.50;;;19.30;83.80;;;;;;5012179;28;20778;-72
2022/09/24 04:05:52;;;;;;;3.70;3.15;;;19.30;83.90;;;;;;5012060;28;20173;-71
2022/09/24 04:08:20;;;;;;;4.82;3.67;;;19.30;85.00;;;;;;5028514;28;20190;-71
2022/09/24 04:10:47;;;;;;;3.53;3.10;;;19.20;85.20;;;;;;5028837;28;20187;-71
2022/09/24 04:13:14;;;;;;;4.07;3.20;;;19.30;85.20;;;;;;5012063;28;20224;-71
2022/09/24 04:15:40;;;;;;;5.95;3.20;;;19.30;85.60;;;;;;5012971;28;20238;-71
2022/09/24 04:18:07;;;;;;;5.97;3.45;;;19.30;85.50;;;;;;5011939;28;20223;-70
2022/09/24 04:20:33;;;;;;;4.05;3.40;;;19.30;85.20;;;;;;5011842;28;20184;-70
2022/09/24 04:23:01;;;;;;;4.35;3.53;;;19.30;85.10;;;;;;5028228;28;20215;-70
2022/09/24 04:25:29;;;;;;;5.60;3.28;;;19.30;85.30;;;;;;5011557;28;20184;-70
2022/09/24 04:28:03;;;;;;;4.38;3.40;;;19.30;85.60;;;;;;5011786;28;20188;-72
2022/09/24 04:30:31;;;;;;;8.30;3.53;;;19.30;85.90;;;;;;5028197;28;20597;-71
2022/09/24 04:33:01;;;;;;;5.32;3.58;;;19.30;86.00;;;;;;5011046;28;20223;-71
2022/09/24 04:35:31;;;;;;;7.55;3.63;;;19.40;84.80;;;;;;5011519;28;20188;-71
2022/09/24 04:37:58;;;;;;;6.05;3.50;;;19.30;84.30;;;;;;5011733;28;20192;-71
2022/09/24 04:40:24;;;;;;;12.25;3.72;;;19.30;85.60;;;;;;5028205;28;20191;-71
2022/09/24 04:42:51;;;;;;;8.35;3.40;;;19.20;85.90;;;;;;5027975;28;20695;-70
2022/09/24 04:45:18;;;;;;;14.30;4.00;;;19.30;86.60;;;;;;5011393;28;20725;-71
2022/09/24 04:47:44;;;;;;;8.25;4.00;;;19.20;87.00;;;;;;5011591;28;20204;-71
2022/09/24 04:50:10;;;;;;;8.20;3.38;;;19.20;86.80;;;;;;5011912;28;20189;-70
2022/09/24 04:52:38;;;;;;;3.85;3.15;;;19.20;86.60;;;;;;5011454;28;20278;-71
2022/09/24 04:55:05;;;;;;;14.00;3.90;;;19.20;86.50;;;;;;5027743;28;20191;-70
2022/09/24 04:57:35;;;;;;;9.30;3.83;;;19.20;86.20;;;;;;5028369;28;20207;-72
2022/09/24 05:00:13;;;;;;;9.75;3.60;;;19.20;86.10;;;;;;5029435;28;20191;-71
2022/09/24 05:02:39;;;;;;;8.20;3.75;;;19.20;87.40;;;;;;5011120;28;20717;-70
2022/09/24 05:05:06;;;;;;;8.77;3.60;;;19.20;87.90;;;;;;5011113;28;20215;-70
2022/09/24 05:07:31;;;;;;;6.38;3.30;;;19.20;88.30;;;;;;5011421;28;20255;-71
2022/09/24 05:09:57;;;;;;;8.23;3.70;;;19.20;89.30;;;;;;5011235;28;20658;-71
2022/09/24 05:12:23;;;;;;;11.50;3.75;;;19.20;90.10;;;;;;5027615;28;20226;-70
2022/09/24 05:14:48;;;;;;;5.20;3.60;;;19.20;90.40;;;;;;5027880;28;20238;-70
2022/09/24 05:17:14;;;;;;;6.30;3.22;;;19.20;90.50;;;;;;5012558;28;20640;-70
2022/09/24 05:19:40;;;;;;;5.50;3.33;;;19.20;90.90;;;;;;5027646;28;20180;-70
2022/09/24 05:22:06;;;;;;;6.60;3.75;;;19.20;90.50;;;;;;5011145;28;20188;-71
2022/09/24 05:24:31;;;;;;;7.25;3.80;;;19.10;90.90;;;;;;5011377;28;20216;-68
2022/09/24 05:27:09;;;;;;;6.45;3.05;;;19.20;90.80;;;;;;5027617;28;20572;-70
2022/09/24 05:29:42;;;;;;;6.00;3.47;;;19.20;91.20;;;;;;5027613;28;20309;-71
2022/09/24 05:32:19;;;;;;;4.85;3.67;;;19.20;91.60;;;;;;5027592;28;20270;-70
2022/09/24 05:34:46;;;;;;;5.95;3.35;;;19.20;91.00;;;;;;5010950;28;20175;-70
2022/09/24 05:37:13;;;;;;;5.72;3.45;;;19.20;91.20;;;;;;5012324;28;20180;-70
2022/09/24 05:39:39;;;;;;;5.07;3.88;;;19.10;90.60;;;;;;5011183;28;20176;-70
2022/09/24 05:42:08;;;;;;;4.32;3.42;;;19.20;91.80;;;;;;5012234;28;20267;-70
2022/09/24 05:44:34;;;;;;;9.15;3.33;;;19.20;92.20;;;;;;5013810;28;20215;-69
2022/09/24 05:47:00;;;;;;;4.97;3.50;;;19.20;91.20;;;;;;5014994;28;20275;-71
2022/09/24 05:49:25;;;;;;;9.43;3.42;;;19.20;91.20;;;;;;5014663;28;20196;-70
2022/09/24 05:51:51;;;;;;;4.78;3.28;;;19.20;91.20;;;;;;5014608;28;20212;-71
2022/09/24 05:54:18;;;;;;;7.55;3.83;;;19.20;91.30;;;;;;5031310;28;20208;-71
2022/09/24 05:56:44;;;;;;;5.97;3.53;;;19.20;92.20;;;;;;5031190;28;20188;-71
2022/09/24 05:59:11;;;;;;;6.95;3.72;;;19.20;92.50;;;;;;5015811;28;20188;-71
2022/09/24 06:01:37;;;;;;;4.68;3.55;;;19.20;92.20;;;;;;5014484;28;20192;-71
2022/09/24 06:04:02;;;;;;;4.70;3.35;;;19.20;92.20;;;;;;5021645;28;20702;-71
2022/09/24 06:06:28;;;;;;;7.35;4.38;;;19.20;92.20;;;;;;4986081;28;20315;-71
2022/09/24 06:08:55;;;;;;;5.32;3.53;;;19.20;92.00;;;;;;4994898;28;20196;-71
2022/09/24 06:11:21;;;;;;;8.27;3.95;;;19.20;91.60;;;;;;4995798;28;20216;-71
2022/09/24 06:13:50;;;;;;;4.30;3.90;;;19.20;91.50;;;;;;4978695;28;20246;-71
2022/09/24 06:16:17;;;;;;;5.82;3.78;;;19.20;91.60;;;;;;4978221;28;20177;-71
2022/09/24 06:18:43;;;;;;;6.63;3.53;;;19.20;91.30;;;;;;4978311;28;20189;-72
2022/09/24 06:21:18;;;;;;;3.80;3.30;;;19.20;91.20;;;;;;4994513;28;20181;-71
2022/09/24 06:23:44;;;;;;;5.90;4.03;;;19.20;91.20;;;;;;4994475;28;20216;-71
2022/09/24 06:26:13;;;;;;;4.07;3.67;;;19.20;91.40;;;;;;4994635;28;20181;-71
2022/09/24 06:28:39;;;;;;;7.22;4.05;;;19.20;91.60;;;;;;4989613;28;20185;-70
2022/09/24 06:31:08;;;;;;;11.10;3.90;;;19.20;91.30;;;;;;4995865;28;20564;-72
2022/09/24 06:33:34;;;;;;;8.93;3.67;;;19.20;91.60;;;;;;5030133;28;20291;-72
2022/09/24 06:36:03;;;;;;;6.30;3.63;;;19.20;91.70;;;;;;5003608;28;20211;-71
2022/09/24 06:38:29;;;;;;;13.32;3.85;;;19.20;91.60;;;;;;5005770;28;20204;-71
2022/09/24 06:41:01;;;;;;;6.43;4.20;;;19.20;91.60;;;;;;4996668;28;20623;-71
2022/09/24 06:43:27;;;;;;;16.20;4.80;;;;;;;;;;5026379;28;20216;-71
2022/09/24 06:45:58;;;;;;;11.30;3.92;;;19.30;91.80;;;;;;5007978;28;20180;-71
2022/09/24 06:48:25;;;;;;;9.05;4.00;;;19.20;91.90;;;;;;4992409;28;20192;-70
2022/09/24 06:50:51;;;;;;;10.90;4.45;;;19.20;91.70;;;;;;4988211;28;20555;-71
2022/09/24 06:53:17;;;;;;;7.53;3.42;;;19.20;91.70;;;;;;5003123;28;20307;-71
2022/09/24 06:55:44;;;;;;;7.00;3.70;;;19.20;91.70;;;;;;5012257;28;20188;-71
2022/09/24 06:58:18;;;;;;;5.68;3.88;;;19.20;91.60;;;;;;5002439;28;20203;-72
2022/09/24 07:00:57;;;;;;;6.13;3.72;;;19.20;91.40;;;;;;5013291;28;20226;-70
2022/09/24 07:03:24;;;;;;;7.63;4.22;;;19.20;91.30;;;;;;5006530;28;20215;-68
2022/09/24 07:05:50;;;;;;;8.18;4.03;;;19.20;91.30;;;;;;5001535;28;20184;-72
2022/09/24 07:08:16;;;;;;;42.55;5.85;;;19.30;91.00;;;;;;5014796;28;20196;-70
2022/09/24 07:10:51;;;;;;;9.15;5.95;;;19.30;90.90;;;;;;4995048;28;20192;-70
2022/09/24 07:13:20;;;;;;;10.32;5.45;;;18.60;83.00;;;;;;5012738;28;20215;-71
2022/09/24 07:15:47;;;;;;;6.72;5.55;;;16.40;94.90;;;;;;5012936;28;20267;-71
2022/09/24 07:18:13;;;;;;;6.85;5.97;;;15.40;99.90;;;;;;5004353;28;20173;-70
2022/09/24 07:20:39;;;;;;;7.03;6.32;;;14.90;99.90;;;;;;4992901;28;20244;-71
2022/09/24 07:23:07;;;;;;;6.95;6.25;;;14.70;99.90;;;;;;5001687;28;20691;-70
2022/09/24 07:25:34;;;;;;;6.13;5.53;;;14.40;99.90;;;;;;5023530;28;20180;-71
2022/09/24 07:28:09;;;;;;;6.80;5.43;;;14.60;99.90;;;;;;5014088;28;20276;-71
2022/09/24 07:30:36;;;;;;;7.53;6.05;;;14.80;99.90;;;;;;4994366;28;20176;-70
2022/09/24 07:33:03;;;;;;;6.55;5.20;;;14.50;99.90;;;;;;5009218;28;20274;-70
2022/09/24 07:35:30;;;;;;;6.22;4.90;;;15.70;99.90;;;;;;4976988;28;20220;-69
2022/09/24 07:37:59;;;;;;;6.32;4.65;;;16.70;99.90;;;;;;5009403;28;20185;-70
2022/09/24 07:40:26;;;;;;;5.55;4.72;;;17.40;94.90;;;;;;4994195;28;20208;-70
2022/09/24 07:42:54;;;;;;;6.10;3.80;;;17.80;92.30;;;;;;5037610;22;20220;-67
2022/09/24 07:45:21;;;;;;;3.85;3.53;;;18.00;90.80;;;;;;5047673;28;20290;-67
2022/09/24 07:47:55;;;;;;;5.22;4.32;;;18.10;89.80;;;;;;5032010;28;20183;-67
2022/09/24 07:50:21;;;;;;;6.40;4.05;;;18.20;88.60;;;;;;5015690;28;20183;-67
2022/09/24 07:52:50;;;;;;;4.00;3.63;;;18.30;87.60;;;;;;5030879;28;20214;-67
2022/09/24 07:55:16;;;;;;;4.65;3.60;;;18.30;87.50;;;;;;5012604;28;20263;-67
2022/09/24 07:57:50;;;;;;;4.10;3.70;;;18.40;86.40;;;;;;5012229;28;20263;-67
2022/09/24 08:00:17;;;;;;;4.00;3.60;;;18.40;85.70;;;;;;5012592;28;20183;-67
2022/09/24 08:02:47;;;;;;;3.90;3.50;;;18.40;85.30;;;;;;5012384;28;20210;-67
2022/09/24 08:05:14;;;;;;;4.22;3.83;;;18.50;85.20;;;;;;5013462;28;20195;-67
2022/09/24 08:07:41;;;;;;;4.05;3.72;;;18.50;84.80;;;;;;5012082;28;20260;-67
2022/09/24 08:10:08;;;;;;;4.93;3.83;;;18.50;84.50;;;;;;5012168;28;20184;-67
2022/09/24 08:12:34;;;;;;;4.45;3.50;;;18.50;84.30;;;;;;5012031;28;20208;-66
2022/09/24 08:15:00;;;;;;;4.72;3.72;;;18.60;84.30;;;;;;4995572;28;20216;-67
2022/09/24 08:17:25;;;;;;;3.70;3.40;;;18.60;84.00;;;;;;5011946;28;20227;-66
2022/09/24 08:19:55;;;;;;;4.10;3.67;;;18.60;83.70;;;;;;5011826;28;20262;-68
2022/09/24 08:22:22;;;;;;;4.70;4.30;;;18.60;83.50;;;;;;5012152;28;20192;-67
2022/09/24 08:24:49;;;;;;;4.32;3.55;;;18.60;83.40;;;;;;5011802;28;20204;-68
2022/09/24 08:27:16;;;;;;;4.13;3.40;;;18.60;83.10;;;;;;4995113;28;20251;-67
2022/09/24 08:29:42;;;;;;;3.78;3.47;;;18.60;83.10;;;;;;5009565;28;20342;-67
2022/09/24 08:32:07;;;;;;;4.85;3.58;;;18.60;82.90;;;;;;4992273;28;20291;-67
2022/09/24 08:34:37;;;;;;;3.97;3.67;;;18.70;82.90;;;;;;4991973;28;20274;-67
2022/09/24 08:37:04;;;;;;;4.10;3.70;;;18.70;82.60;;;;;;4975767;28;20176;-67
2022/09/24 08:39:32;;;;;;;8.65;4.05;;;18.70;83.00;;;;;;5005820;28;20267;-67
2022/09/24 08:42:28;;;;;;;6.65;3.65;;;18.80;84.00;;;;;;5011717;28;20568;-68
2022/09/24 08:48:01;;;;;;;7.43;3.70;;;18.90;84.20;;;;;;5011869;28;20202;-67
2022/09/24 08:50:32;;;;;;;3.75;3.15;;;19.00;84.50;;;;;;5011638;28;20198;-67
2022/09/24 08:53:41;;;;;;;7.32;3.45;;;19.00;84.30;;;;;;4995136;28;20216;-68
2022/09/24 08:56:09;;;;;;;29.60;4.47;;;19.00;84.00;;;;;;4995017;28;20223;-67
2022/09/24 08:58:55;;;;;;;9.57;4.30;;;19.10;86.40;;;;;;4994980;28;20219;-67
2022/09/24 09:01:30;;;;;;;11.35;3.92;;;19.00;84.20;;;;;;4995312;28;20214;-67
2022/09/24 09:04:03;;;;;;;7.95;3.65;;;19.00;84.40;;;;;;4985045;28;20208;-67
2022/09/24 09:07:05;;;;;;;6.35;3.10;;;19.00;84.90;;;;;;4994428;28;20176;-67
2022/09/24 09:09:41;;;;;;;6.88;3.33;;;18.90;85.10;;;;;;4991410;28;20211;-67
2022/09/24 09:12:22;;;;;;;7.47;3.33;;;18.90;85.00;;;;;;5008295;28;20208;-66
2022/09/24 09:15:09;;;;;;;7.90;3.30;;;18.90;84.90;;;;;;4991691;28;20573;-67
2022/09/24 09:17:46;;;;;;;8.10;3.42;;;18.90;84.70;;;;;;4990867;28;20185;-74
2022/09/24 09:20:29;;;;;;;5.68;3.17;;;18.90;84.80;;;;;;5012396;28;20231;-66
2022/09/24 09:23:02;;;;;;;12.82;3.95;;;19.00;84.60;;;;;;4995648;28;20239;-67
2022/09/24 09:25:35;;;;;;;7.82;3.75;;;19.00;84.10;;;;;;4995316;28;20235;-67
2022/09/24 09:28:13;;;;;;;9.40;3.60;;;18.90;84.00;;;;;;4995524;28;20189;-67
2022/09/24 09:30:55;;;;;;;6.05;3.03;;;18.90;84.00;;;;;;4995851;28;20216;-66
2022/09/24 09:33:29;;;;;;;3.42;2.90;;;18.90;83.90;;;;;;4995545;28;20216;-66
2022/09/24 09:36:03;;;;;;;6.40;3.10;;;18.90;83.90;;;;;;4995276;28;20652;-67
2022/09/24 09:38:53;;;;;;;8.45;3.08;;;18.90;83.50;;;;;;4996453;28;20169;-66
2022/09/24 09:41:44;;;;;;;6.68;3.38;;;18.90;83.40;;;;;;4995218;28;20200;-66
2022/09/24 09:44:21;;;;;;;4.40;2.85;;;18.90;83.40;;;;;;4978836;28;20220;-67
2022/09/24 09:46:54;;;;;;;6.35;3.17;;;18.90;83.40;;;;;;4994926;28;20169;-67
2022/09/24 09:49:21;;;;;;;3.63;2.90;;;18.90;83.30;;;;;;4995188;28;20185;-67
2022/09/24 09:51:53;;;;;;;6.60;2.95;;;18.90;83.00;;;;;;4994939;28;20220;-67
2022/09/24 09:54:20;;;;;;;5.63;2.83;;;18.90;83.00;;;;;;4995326;28;20213;-67
2022/09/24 09:56:49;;;;;;;5.57;3.63;;;18.90;82.80;;;;;;4994817;28;20185;-67
2022/09/24 09:59:20;;;;;;;4.93;3.03;;;18.90;82.70;;;;;;4996071;28;20189;-67
2022/09/24 10:01:55;;;;;;;3.85;2.90;;;18.90;82.60;;;;;;4995097;28;20177;-64
2022/09/24 10:04:40;;;;;;;5.03;2.97;;;18.90;82.50;;;;;;4995144;28;20218;-66
2022/09/24 10:07:16;;;;;;;5.30;3.08;;;18.90;82.40;;;;;;4994685;28;20233;-66
2022/09/24 10:09:44;;;;;;;4.45;3.03;;;18.90;82.40;;;;;;4985090;28;20207;-67
2022/09/24 10:12:20;;;;;;;5.43;3.60;;;19.00;82.60;;;;;;5022605;28;20207;-67
2022/09/24 10:15:01;;;;;;;5.35;2.58;;;19.00;82.40;;;;;;5016688;28;20222;-66
2022/09/24 10:17:36;;;;;;;4.18;2.90;;;19.00;82.40;;;;;;5025995;28;20202;-66
2022/09/24 10:20:15;;;;;;;6.47;3.30;;;19.00;82.40;;;;;;5034241;28;20175;-67
2022/09/24 10:22:50;;;;;;;5.03;2.85;;;19.00;82.30;;;;;;5018114;28;20611;-65
2022/09/24 10:25:23;;;;;;;3.97;2.85;;;19.00;82.40;;;;;;5022441;28;20282;-67
2022/09/24 10:27:52;;;;;;;4.25;2.80;;;19.00;82.30;;;;;;5032112;28;20186;-66
2022/09/24 10:30:32;;;;;;;9.35;3.22;;;18.90;82.20;;;;;;5034227;28;20214;-66
2022/09/24 10:33:02;;;;;;;3.75;2.85;;;19.00;82.30;;;;;;5014254;28;20238;-66
2022/09/24 10:35:37;;;;;;;6.43;2.90;;;19.00;82.20;;;;;;5026407;28;20199;-67
2022/09/24 10:38:19;;;;;;;5.45;2.83;;;19.00;82.00;;;;;;5022052;28;20643;-67
2022/09/24 10:40:46;;;;;;;16.13;2.95;;;19.00;81.90;;;;;;5015275;28;20233;-67
2022/09/24 10:43:21;;;;;;;8.43;3.15;;;19.00;81.90;;;;;;5016840;28;20215;-66
2022/09/24 10:46:07;;;;;;;12.18;2.88;;;19.00;82.30;;;;;;5016732;28;20209;-67
2022/09/24 10:49:21;;;;;;;7.97;3.15;;;19.00;82.20;;;;;;5017090;28;20606;-67
2022/09/24 10:52:16;;;;;;;3.40;2.65;;;19.00;82.20;;;;;;5015656;28;20250;-67
2022/09/24 10:54:55;;;;;;;6.07;2.78;;;19.00;82.20;;;;;;5033485;28;20203;-67
2022/09/24 10:57:51;;;;;;;5.75;2.67;;;19.00;82.20;;;;;;5033682;28;20216;-66
2022/09/24 11:00:23;;;;;;;4.03;2.78;;;19.00;82.20;;;;;;5015752;28;20186;-69
2022/09/24 11:03:19;;;;;;;7.85;2.90;;;19.00;82.10;;;;;;5040183;28;20204;-69
2022/09/24 11:06:01;;;;;;;5.85;2.85;;;19.00;82.00;;;;;;5033923;28;20183;-70
2022/09/24 11:09:06;;;;;;;4.93;2.78;;;19.00;81.90;;;;;;5033883;28;20184;-70
2022/09/24 11:11:57;;;;;;;5.38;3.10;;;19.00;81.80;;;;;;5017589;28;20206;-70
2022/09/24 11:14:48;;;;;;;4.00;2.60;;;19.00;81.80;;;;;;5017171;28;20310;-69
2022/09/24 11:17:37;;;;;;;3.40;2.47;;;19.00;81.70;;;;;;5034995;28;20176;-69
2022/09/24 11:20:08;;;;;;;6.65;3.00;;;19.00;81.50;;;;;;5017015;28;20175;-70
2022/09/24 11:23:14;;;;;;;4.90;2.90;;;19.00;81.50;;;;;;5033992;28;20256;-70
2022/09/24 11:26:37;;;;;;;3.60;2.50;;;19.00;81.60;;;;;;5033282;28;20179;-69
2022/09/24 11:29:36;;;;;;;6.53;2.63;;;19.00;81.40;;;;;;5033594;28;20164;-70
2022/09/24 11:32:28;;;;;;;2.92;2.35;;;19.00;81.40;;;;;;5016813;28;20204;-70
2022/09/24 11:35:50;;;;;;;7.18;2.60;;;19.00;81.50;;;;;;5006155;28;20208;-70
2022/09/24 11:39:11;;;;;;;4.00;2.53;;;19.00;81.40;;;;;;5012812;28;20180;-69
2022/09/24 11:41:57;;;;;;;2.83;2.20;;;19.00;81.20;;;;;;5012482;28;20311;-69
2022/09/24 11:45:00;;;;;;;3.45;2.40;;;19.00;81.10;;;;;;4996947;28;20230;-69
2022/09/24 11:48:34;;;;;;;3.78;2.30;;;19.00;81.20;;;;;;4997193;28;20187;-69
2022/09/24 11:51:29;;;;;;;5.07;2.70;;;19.00;81.00;;;;;;4996242;28;20195;-69
2022/09/24 11:54:25;;;;;;;2.72;2.20;;;19.00;81.00;;;;;;5011700;28;20220;-69
2022/09/24 11:57:03;;;;;;;2.53;2.33;;;19.00;80.90;;;;;;4978634;28;20295;-69
2022/09/24 12:00:04;;;;;;;4.43;2.30;;;19.00;80.80;;;;;;4996505;28;20238;-69
2022/09/24 12:02:48;;;;;;;2.95;2.50;;;19.00;80.80;;;;;;5022713;28;20183;-69
2022/09/24 12:05:52;;;;;;;5.22;2.20;;;19.00;80.70;;;;;;4993049;28;20173;-69
2022/09/24 12:08:37;;;;;;;4.28;2.72;;;19.00;80.80;;;;;;4993440;28;20215;-69
2022/09/24 12:11:17;;;;;;;2.42;2.22;;;19.00;80.60;;;;;;4993305;28;20235;-69
2022/09/24 12:13:59;;;;;;;2.60;2.40;;;19.00;80.60;;;;;;4993659;28;20213;-69
2022/09/24 12:16:36;;;;;;;4.13;2.35;;;19.00;80.60;;;;;;4993342;28;20196;-69
2022/09/24 12:19:35;;;;;;;2.50;2.15;;;19.10;80.70;;;;;;4993369;28;20230;-69
2022/09/24 12:22:03;;;;;;;3.03;2.25;;;19.10;80.70;;;;;;4993133;28;20243;-70
2022/09/24 12:25:11;;;;;;;2.67;2.00;;;19.00;80.40;;;;;;4993035;28;20680;-69
2022/09/24 12:27:38;;;;;;;2.60;2.40;;;19.10;80.50;;;;;;4975325;28;20199;-69
2022/09/24 12:33:37;;;;;;;1.98;1.83;;;19.10;80.40;;;;;;5016667;28;20221;-69
2022/09/24 12:36:21;;;;;;;2.30;2.10;;;19.10;80.40;;;;;;5012001;28;20195;-69
2022/09/24 12:38:56;;;;;;;3.92;2.05;;;19.10;80.30;;;;;;5010277;28;20715;-69
2022/09/24 12:41:41;;;;;;;4.88;2.20;;;19.10;80.20;;;;;;5008708;28;20215;-69
2022/09/24 12:44:09;;;;;;;3.33;2.28;;;19.00;80.10;;;;;;5019550;28;20299;-69
2022/09/24 12:46:54;;;;;;;2.47;2.25;;;19.00;80.20;;;;;;4990904;28;20189;-70
2022/09/24 12:49:23;;;;;;;2.78;2.13;;;19.10;80.40;;;;;;5006923;28;20188;-71
2022/09/24 12:51:51;;;;;;;3.13;1.90;;;19.00;80.20;;;;;;5011709;28;20203;-71
2022/09/24 12:54:31;;;;;;;2.20;2.00;;;19.00;80.00;;;;;;5001095;28;20211;-70
2022/09/24 12:57:14;;;;;;;3.75;2.10;;;19.00;80.20;;;;;;5023445;28;20211;-69
2022/09/24 12:59:56;;;;;;;2.03;1.75;;;19.00;80.10;;;;;;5012385;28;20168;-70
2022/09/24 13:02:26;;;;;;;2.97;2.03;;;19.00;80.00;;;;;;5037184;28;20207;-70
2022/09/24 13:05:01;;;;;;;3.00;2.20;;;19.10;80.00;;;;;;5015221;28;20227;-69
2022/09/24 13:07:38;;;;;;;2.20;1.80;;;19.00;79.80;;;;;;5000911;28;20191;-70
2022/09/24 13:10:23;;;;;;;2.22;2.03;;;19.10;80.00;;;;;;4994396;28;20199;-69
2022/09/24 13:12:49;;;;;;;2.42;2.10;;;19.00;80.00;;;;;;4990142;28;20287;-70
2022/09/24 13:15:38;;;;;;;3.50;2.00;;;19.00;80.00;;;;;;5002275;28;20183;-69
2022/09/24 13:18:18;;;;;;;2.03;1.70;;;19.10;80.10;;;;;;5003347;28;20181;-69
2022/09/24 13:21:21;;;;;;;2.25;2.00;;;19.00;80.00;;;;;;4992157;28;20172;-69
2022/09/24 13:23:49;;;;;;;2.20;2.00;;;19.00;79.90;;;;;;5007627;28;20204;-69
2022/09/24 13:26:41;;;;;;;2.28;2.08;;;19.10;80.10;;;;;;4984632;28;20184;-70
2022/09/24 13:29:24;;;;;;;2.10;1.90;;;19.10;80.20;;;;;;5000734;28;20192;-69